createdAt,value
2019-05-06T00:00:59.236Z,56.55
2019-05-06T00:03:29.804Z,56.50
2019-05-06T00:06:03.936Z,56.44
2019-05-06T00:08:37.514Z,56.49
2019-05-06T00:11:10.897Z,57.59
2019-05-06T00:13:45.459Z,58.52
2019-05-06T00:16:18.865Z,59.17
2019-05-06T00:18:54.086Z,59.42
2019-05-06T00:21:27.471Z,59.77
2019-05-06T00:24:01.296Z,60.09
2019-05-06T00:26:46.331Z,60.67
2019-05-06T00:29:24.270Z,61.08
2019-05-06T00:31:57.662Z,61.43
2019-05-06T00:34:31.161Z,61.86
2019-05-06T00:37:04.594Z,62.08
2019-05-06T00:40:00.443Z,64.27
2019-05-06T00:42:35.740Z,51.81
2019-05-06T00:45:10.840Z,46.02
2019-05-06T00:47:44.454Z,47.54
2019-05-06T00:50:17.838Z,49.47
2019-05-06T00:52:53.834Z,50.77
2019-05-06T00:55:26.937Z,51.92
2019-05-06T00:58:00.380Z,52.90
2019-05-06T01:00:36.591Z,53.58
2019-05-06T01:03:10.083Z,54.12
2019-05-06T01:05:44.417Z,54.68
2019-05-06T01:08:18.419Z,55.19
2019-05-06T01:10:51.777Z,55.83
2019-05-06T01:13:35.959Z,56.43
2019-05-06T01:16:10.334Z,57.00
2019-05-06T01:18:43.751Z,57.73
2019-05-06T01:21:17.425Z,58.24
2019-05-06T01:23:50.750Z,58.70
2019-05-06T01:26:24.394Z,59.33
2019-05-06T01:28:57.840Z,59.71
2019-05-06T01:31:40.581Z,60.24
2019-05-06T01:34:06.377Z,60.51
2019-05-06T01:36:39.815Z,61.07
2019-05-06T01:39:35.104Z,61.36
2019-05-06T01:42:27.677Z,61.57
2019-05-06T01:45:00.988Z,61.92
2019-05-06T01:47:34.651Z,64.39
2019-05-06T01:50:08.527Z,53.63
2019-05-06T01:52:41.888Z,47.43
2019-05-06T01:55:15.431Z,48.83
2019-05-06T01:57:48.790Z,50.72
2019-05-06T02:00:23.666Z,51.87
2019-05-06T02:02:57.127Z,52.89
2019-05-06T02:05:30.498Z,54.01
2019-05-06T02:08:04.058Z,54.82
2019-05-06T02:10:38.278Z,55.51
2019-05-06T02:13:11.574Z,56.17
2019-05-06T02:15:45.009Z,56.93
2019-05-06T02:18:20.830Z,57.42
2019-05-06T02:20:57.478Z,58.07
2019-05-06T02:23:33.771Z,58.84
2019-05-06T02:26:07.392Z,59.42
2019-05-06T02:28:43.607Z,60.01
2019-05-06T02:31:35.325Z,60.65
2019-05-06T02:34:20.692Z,61.10
2019-05-06T02:37:07.917Z,61.51
2019-05-06T02:39:43.792Z,61.75
2019-05-06T02:42:16.360Z,64.89
2019-05-06T02:44:49.944Z,53.89
2019-05-06T02:47:53.572Z,47.73
2019-05-06T02:50:26.949Z,49.35
2019-05-06T02:53:02.705Z,51.19
2019-05-06T02:55:36.222Z,52.32
2019-05-06T02:58:09.659Z,53.14
2019-05-06T03:00:43.313Z,54.16
2019-05-06T03:03:16.801Z,54.80
2019-05-06T03:05:53.052Z,55.47
2019-05-06T03:08:25.161Z,56.26
2019-05-06T03:10:58.670Z,57.00
2019-05-06T03:13:34.212Z,57.84
2019-05-06T03:16:08.211Z,58.53
2019-05-06T03:18:43.365Z,59.11
2019-05-06T03:21:47.610Z,59.66
2019-05-06T03:24:48.835Z,59.89
2019-05-06T03:27:23.486Z,60.40
2019-05-06T03:29:59.282Z,61.18
2019-05-06T03:32:41.124Z,61.69
2019-05-06T03:35:27.268Z,62.24
2019-05-06T03:37:44.056Z,64.91
2019-05-06T03:40:17.678Z,53.06
2019-05-06T03:42:53.976Z,46.84
2019-05-06T03:45:44.878Z,48.50
2019-05-06T03:48:24.008Z,50.61
2019-05-06T03:50:57.597Z,52.18
2019-05-06T03:53:33.365Z,53.33
2019-05-06T03:56:08.037Z,54.29
2019-05-06T03:58:43.512Z,55.00
2019-05-06T04:01:18.456Z,55.67
2019-05-06T04:03:56.501Z,56.61
2019-05-06T04:06:26.815Z,57.61
2019-05-06T04:09:03.352Z,58.25
2019-05-06T04:11:38.172Z,59.12
2019-05-06T04:14:13.989Z,60.04
2019-05-06T04:17:07.433Z,60.61
2019-05-06T04:19:44.238Z,60.86
2019-05-06T04:22:26.207Z,61.67
2019-05-06T04:25:23.153Z,63.86
2019-05-06T04:27:57.992Z,51.30
2019-05-06T04:30:33.405Z,46.20
2019-05-06T04:33:06.717Z,48.25
2019-05-06T04:35:42.800Z,50.54
2019-05-06T04:38:15.339Z,52.12
2019-05-06T04:40:48.954Z,53.45
2019-05-06T04:43:43.588Z,54.58
2019-05-06T04:46:16.905Z,55.51
2019-05-06T04:48:50.623Z,56.29
2019-05-06T04:51:36.859Z,57.21
2019-05-06T04:54:18.345Z,57.87
2019-05-06T04:56:53.639Z,58.55
2019-05-06T04:59:26.776Z,59.19
2019-05-06T05:02:02.693Z,59.53
2019-05-06T05:04:36.981Z,59.92
2019-05-06T05:07:12.774Z,60.32
2019-05-06T05:09:45.680Z,60.91
2019-05-06T05:12:27.452Z,61.16
2019-05-06T05:15:19.896Z,61.99
2019-05-06T05:18:13.014Z,63.15
2019-05-06T05:20:46.938Z,50.61
2019-05-06T05:23:22.804Z,45.53
2019-05-06T05:25:55.876Z,48.01
2019-05-06T05:28:31.573Z,49.92
2019-05-06T05:31:04.960Z,51.14
2019-05-06T05:33:38.447Z,52.58
2019-05-06T05:36:12.356Z,53.24
2019-05-06T05:38:45.742Z,54.50
2019-05-06T05:41:19.284Z,55.17
2019-05-06T05:43:56.983Z,55.26
2019-05-06T05:46:30.539Z,56.93
2019-05-06T05:49:28.652Z,57.02
2019-05-06T05:52:03.410Z,57.43
2019-05-06T05:54:37.521Z,57.54
2019-05-06T05:57:11.904Z,57.68
2019-05-06T05:59:45.453Z,58.19
2019-05-06T06:02:18.893Z,58.55
2019-05-06T06:04:57.284Z,58.27
2019-05-06T06:07:27.738Z,59.01
2019-05-06T06:10:16.266Z,59.15
2019-05-06T06:12:49.635Z,58.71
2019-05-06T06:15:42.378Z,58.91
2019-05-06T06:18:23.509Z,59.53
2019-05-06T06:21:17.927Z,58.07
2019-05-06T06:23:43.042Z,56.73
2019-05-06T06:26:16.520Z,55.57
2019-05-06T06:28:52.291Z,54.61
2019-05-06T06:31:33.254Z,53.49
2019-05-06T06:34:13.129Z,53.19
2019-05-06T06:37:05.261Z,52.50
2019-05-06T06:39:42.334Z,52.23
2019-05-06T06:42:17.252Z,51.44
2019-05-06T06:44:52.147Z,51.05
2019-05-06T06:47:25.723Z,51.14
2019-05-06T06:49:59.086Z,49.59
2019-05-06T06:52:32.803Z,50.35
2019-05-06T06:55:06.380Z,50.35
2019-05-06T06:57:58.701Z,50.70
2019-05-06T07:00:42.490Z,48.91
2019-05-06T07:03:21.838Z,47.35
2019-05-06T07:06:08.080Z,48.40
2019-05-06T07:08:42.624Z,47.35
2019-05-06T07:11:15.966Z,46.85
2019-05-06T07:13:57.011Z,47.57
2019-05-06T07:16:32.719Z,46.88
2019-05-06T07:19:05.492Z,45.96
2019-05-06T07:21:49.307Z,45.56
2019-05-06T07:24:22.940Z,45.17
2019-05-06T07:27:05.829Z,44.73
2019-05-06T07:29:39.112Z,45.40
2019-05-06T07:32:12.481Z,46.92
2019-05-06T07:34:46.076Z,45.04
2019-05-06T07:37:19.336Z,45.49
2019-05-06T07:39:53.106Z,45.40
2019-05-06T07:42:50.039Z,44.63
2019-05-06T07:45:32.956Z,44.62
2019-05-06T07:48:08.465Z,42.97
2019-05-06T07:50:42.524Z,42.93
2019-05-06T07:53:15.910Z,41.98
2019-05-06T07:55:52.443Z,44.21
2019-05-06T07:58:25.397Z,43.59
2019-05-06T08:00:58.678Z,41.70
2019-05-06T08:03:33.137Z,41.77
2019-05-06T08:06:08.146Z,40.25
2019-05-06T08:08:43.293Z,38.88
2019-05-06T08:11:17.326Z,39.98
2019-05-06T08:13:52.619Z,38.91
2019-05-06T08:16:27.066Z,38.68
2019-05-06T08:19:02.655Z,39.19
2019-05-06T08:21:38.101Z,39.10
2019-05-06T08:24:12.032Z,38.63
2019-05-06T08:26:45.597Z,37.90
2019-05-06T08:29:19.387Z,37.79
2019-05-06T08:31:52.788Z,39.70
2019-05-06T08:34:25.996Z,38.60
2019-05-06T08:37:18.079Z,40.04
2019-05-06T08:39:52.682Z,41.38
2019-05-06T08:42:26.222Z,39.86
2019-05-06T08:45:02.087Z,36.59
2019-05-06T08:47:34.590Z,35.66
2019-05-06T08:50:25.892Z,34.81
2019-05-06T08:53:13.991Z,34.21
2019-05-06T08:55:47.510Z,34.60
2019-05-06T08:58:22.289Z,34.63
2019-05-06T09:01:03.153Z,35.12
2019-05-06T09:03:36.284Z,34.00
2019-05-06T09:06:23.617Z,30.79
2019-05-06T09:08:44.409Z,31.16
2019-05-06T09:11:17.506Z,34.37
2019-05-06T09:13:52.113Z,34.91
2019-05-06T09:16:25.490Z,33.83
2019-05-06T09:18:58.604Z,34.23
2019-05-06T09:21:33.511Z,34.36
2019-05-06T09:24:06.848Z,34.75
2019-05-06T09:26:47.275Z,35.17
2019-05-06T09:29:45.190Z,35.41
2019-05-06T09:32:22.710Z,33.26
2019-05-06T09:34:59.070Z,33.25
2019-05-06T09:37:33.120Z,33.82
2019-05-06T09:40:07.844Z,33.94
2019-05-06T09:42:42.593Z,34.79
2019-05-06T09:45:16.201Z,35.08
2019-05-06T09:48:14.038Z,34.84
2019-05-06T09:50:49.052Z,34.98
2019-05-06T09:53:28.363Z,33.58
2019-05-06T09:56:17.850Z,35.00
2019-05-06T09:58:52.958Z,35.66
2019-05-06T10:01:25.971Z,35.36
2019-05-06T10:04:03.249Z,35.05
2019-05-06T10:06:36.753Z,35.29
2019-05-06T10:09:15.731Z,36.19
2019-05-06T10:11:48.699Z,36.18
2019-05-06T10:14:23.394Z,37.80
2019-05-06T10:16:57.065Z,37.48
2019-05-06T10:19:32.087Z,35.27
2019-05-06T10:22:05.551Z,35.63
2019-05-06T10:24:38.799Z,34.60
2019-05-06T10:27:12.269Z,35.66
2019-05-06T10:29:57.368Z,36.30
2019-05-06T10:32:38.764Z,36.78
2019-05-06T10:35:13.094Z,37.55
2019-05-06T10:38:32.713Z,38.15
2019-05-06T10:41:12.871Z,37.96
2019-05-06T10:44:17.405Z,38.48
2019-05-06T10:46:52.751Z,38.54
2019-05-06T10:49:27.174Z,37.14
2019-05-06T10:52:12.562Z,35.43
2019-05-06T10:54:45.258Z,36.54
2019-05-06T10:57:24.961Z,37.86
2019-05-06T10:59:58.100Z,38.16
2019-05-06T11:02:59.443Z,38.08
2019-05-06T11:05:32.805Z,38.94
2019-05-06T11:08:05.980Z,38.35
2019-05-06T11:10:41.514Z,38.83
2019-05-06T11:13:14.810Z,39.22
2019-05-06T11:15:48.075Z,39.92
2019-05-06T11:18:23.400Z,40.80
2019-05-06T11:20:56.602Z,40.78
2019-05-06T11:23:29.901Z,39.79
2019-05-06T11:26:03.334Z,39.38
2019-05-06T11:29:07.461Z,39.86
2019-05-06T11:31:55.112Z,40.14
2019-05-06T11:34:52.454Z,40.83
2019-05-06T11:37:54.107Z,41.15
2019-05-06T11:40:25.543Z,40.44
2019-05-06T11:42:58.952Z,41.01
2019-05-06T11:45:34.982Z,40.52
2019-05-06T11:48:14.635Z,41.37
2019-05-06T11:50:50.063Z,41.21
2019-05-06T11:53:23.417Z,40.28
2019-05-06T11:55:56.782Z,41.22
2019-05-06T11:58:45.398Z,40.45
2019-05-06T12:01:27.709Z,40.65
2019-05-06T12:04:02.690Z,39.31
2019-05-06T12:06:36.118Z,39.57
2019-05-06T12:09:16.574Z,38.92
2019-05-06T12:11:46.551Z,40.42
2019-05-06T12:14:19.932Z,40.07
2019-05-06T12:16:55.054Z,39.83
2019-05-06T12:19:28.917Z,39.54
2019-05-06T12:22:02.941Z,39.95
2019-05-06T12:24:36.267Z,40.97
2019-05-06T12:27:09.627Z,40.96
2019-05-06T12:29:43.063Z,41.11
2019-05-06T12:32:33.068Z,40.33
2019-05-06T12:35:07.106Z,41.01
2019-05-06T12:37:43.985Z,42.00
2019-05-06T12:40:19.674Z,41.26
2019-05-06T12:42:56.786Z,40.70
2019-05-06T12:45:37.179Z,40.76
2019-05-06T12:48:21.153Z,40.61
2019-05-06T12:50:54.457Z,41.35
2019-05-06T12:53:28.016Z,40.39
2019-05-06T12:56:03.085Z,39.00
2019-05-06T12:58:36.617Z,38.36
2019-05-06T13:01:13.593Z,39.74
2019-05-06T13:03:45.668Z,39.61
2019-05-06T13:06:19.127Z,38.93
2019-05-06T13:09:00.962Z,37.90
2019-05-06T13:11:28.669Z,38.68
2019-05-06T13:14:04.122Z,37.46
2019-05-06T13:16:37.429Z,38.56
2019-05-06T13:19:12.136Z,37.13
2019-05-06T13:21:45.764Z,38.61
2019-05-06T13:24:19.044Z,38.17
2019-05-06T13:26:52.912Z,37.24
2019-05-06T13:29:33.058Z,38.18
2019-05-06T13:32:06.188Z,37.60
2019-05-06T13:34:39.702Z,36.69
2019-05-06T13:37:13.235Z,35.84
2019-05-06T13:39:46.549Z,36.40
2019-05-06T13:42:22.723Z,34.32
2019-05-06T13:44:58.522Z,33.59
2019-05-06T13:47:49.438Z,32.98
2019-05-06T13:50:24.929Z,32.83
2019-05-06T13:53:09.119Z,33.77
2019-05-06T13:55:39.922Z,32.88
2019-05-06T13:58:13.315Z,32.60
2019-05-06T14:00:46.739Z,32.21
2019-05-06T14:03:20.135Z,33.84
2019-05-06T14:05:53.545Z,31.17
2019-05-06T14:08:27.844Z,31.05
2019-05-06T14:11:02.858Z,32.09
2019-05-06T14:13:36.395Z,31.22
2019-05-06T14:16:13.087Z,30.56
2019-05-06T14:18:46.709Z,31.35
2019-05-06T14:21:20.075Z,30.66
2019-05-06T14:23:55.446Z,30.83
2019-05-06T14:26:34.621Z,30.25
2019-05-06T14:29:16.536Z,30.20
2019-05-06T14:31:52.472Z,30.45
2019-05-06T14:34:26.159Z,30.10
2019-05-06T14:37:00.438Z,30.01
2019-05-06T14:39:52.248Z,30.90
2019-05-06T14:42:12.750Z,30.05
2019-05-06T14:44:46.192Z,30.22
2019-05-06T14:47:32.808Z,29.47
2019-05-06T14:50:07.366Z,29.13
2019-05-06T14:52:42.675Z,29.61
2019-05-06T14:55:22.580Z,29.36
2019-05-06T14:57:56.520Z,29.69
2019-05-06T15:00:31.953Z,30.73
2019-05-06T15:03:08.037Z,31.30
2019-05-06T15:05:42.756Z,30.83
2019-05-06T15:08:16.187Z,30.18
2019-05-06T15:10:49.707Z,30.20
2019-05-06T15:13:23.039Z,30.57
2019-05-06T15:15:56.283Z,30.14
2019-05-06T15:18:29.383Z,29.74
2019-05-06T15:21:29.236Z,35.89
2019-05-06T15:23:38.428Z,31.50
2019-05-06T15:26:16.429Z,30.72
2019-05-06T15:28:49.987Z,30.52
2019-05-06T15:32:02.613Z,29.75
2019-05-06T15:34:53.109Z,30.54
2019-05-06T15:37:42.299Z,30.88
2019-05-06T15:40:15.090Z,31.10
2019-05-06T15:42:48.155Z,31.51
2019-05-06T15:45:22.008Z,31.51
2019-05-06T15:47:55.504Z,32.21
2019-05-06T15:50:28.644Z,31.68
2019-05-06T15:53:03.552Z,32.03
2019-05-06T15:55:36.742Z,33.05
2019-05-06T15:58:12.302Z,33.10
2019-05-06T16:00:44.646Z,33.07
2019-05-06T16:03:17.804Z,33.29
2019-05-06T16:05:54.687Z,33.13
2019-05-06T16:08:26.722Z,33.38
2019-05-06T16:11:02.718Z,33.48
2019-05-06T16:13:34.959Z,33.39
2019-05-06T16:16:08.490Z,32.98
2019-05-06T16:18:42.287Z,33.53
2019-05-06T16:21:19.162Z,33.42
2019-05-06T16:23:57.438Z,33.34
2019-05-06T16:26:30.856Z,33.22
2019-05-06T16:29:04.582Z,33.61
2019-05-06T16:31:38.042Z,33.30
2019-05-06T16:34:12.419Z,33.68
2019-05-06T16:36:46.650Z,33.35
2019-05-06T16:39:22.874Z,33.49
2019-05-06T16:41:59.263Z,33.98
2019-05-06T16:44:34.716Z,33.46
2019-05-06T16:47:08.280Z,33.85
2019-05-06T16:49:42.801Z,34.11
2019-05-06T16:52:16.408Z,32.97
2019-05-06T16:54:51.992Z,33.94
2019-05-06T16:57:25.010Z,34.22
2019-05-06T16:59:59.907Z,34.46
2019-05-06T17:02:41.981Z,33.45
2019-05-06T17:05:42.489Z,33.59
2019-05-06T17:08:19.105Z,34.10
2019-05-06T17:10:53.815Z,33.60
2019-05-06T17:13:27.249Z,34.03
2019-05-06T17:16:02.492Z,34.59
2019-05-06T17:18:35.943Z,34.70
2019-05-06T17:21:09.291Z,34.94
2019-05-06T17:23:42.730Z,34.79
2019-05-06T17:26:19.454Z,34.86
2019-05-06T17:29:19.284Z,35.20
2019-05-06T18:19:16.689Z,25.81
2019-05-06T18:21:52.674Z,27.91
2019-05-06T18:24:26.685Z,29.67
2019-05-06T18:27:02.486Z,31.12
2019-05-06T18:29:36.216Z,32.68
2019-05-06T18:32:09.996Z,33.39
2019-05-06T18:34:44.729Z,33.89
2019-05-06T18:37:18.444Z,34.53
2019-05-06T18:39:53.058Z,35.72
2019-05-06T18:42:26.964Z,36.12
2019-05-06T18:45:02.593Z,36.59
2019-05-06T18:47:36.291Z,38.40
2019-05-06T18:50:12.401Z,38.20
2019-05-06T18:52:46.751Z,38.60
2019-05-06T18:55:22.377Z,39.30
2019-05-06T18:57:56.384Z,39.75
2019-05-06T19:00:32.010Z,40.05
2019-05-06T19:03:06.074Z,40.68
2019-05-06T19:05:42.887Z,40.96
2019-05-06T19:08:37.312Z,41.26
2019-05-06T19:11:13.299Z,41.73
2019-05-06T19:13:47.492Z,42.99
2019-05-06T19:16:25.369Z,43.69
2019-05-06T19:19:05.833Z,44.20
2019-05-06T19:21:38.438Z,44.44
2019-05-06T19:24:13.391Z,45.57
2019-05-06T19:26:47.211Z,46.76
2019-05-06T19:29:22.992Z,45.21
2019-05-06T19:31:56.526Z,44.82
2019-05-06T19:34:34.473Z,44.82
2019-05-06T19:37:24.969Z,44.73
2019-05-06T19:39:59.818Z,44.80
2019-05-06T19:43:15.660Z,44.98
2019-05-06T19:45:49.748Z,44.97
2019-05-06T19:48:25.111Z,45.16
2019-05-06T19:50:59.125Z,45.26
2019-05-06T19:53:33.009Z,45.57
2019-05-06T19:56:07.289Z,48.08
2019-05-06T19:58:42.919Z,48.12
2019-05-06T20:01:32.305Z,46.44
2019-05-06T20:04:07.853Z,46.50
2019-05-06T20:06:52.345Z,46.47
2019-05-06T20:09:52.171Z,46.89
2019-05-06T20:12:32.746Z,46.61
2019-05-06T20:15:25.909Z,46.93
2019-05-06T20:18:04.106Z,47.10
2019-05-06T20:20:38.816Z,47.31
2019-05-06T20:23:12.895Z,47.57
2019-05-06T20:25:47.001Z,47.48
2019-05-06T20:28:22.878Z,47.84
2019-05-06T20:30:58.665Z,47.51
2019-05-06T20:33:33.189Z,47.53
2019-05-06T20:36:07.497Z,47.63
2019-05-06T20:38:45.263Z,47.87
2019-05-06T20:41:22.165Z,47.69
2019-05-06T20:43:57.676Z,48.09
2019-05-06T21:09:54.930Z,47.81
2019-05-06T21:12:33.826Z,48.17
2019-05-06T21:15:32.374Z,47.79
2019-05-06T21:18:18.509Z,48.27
2019-05-06T21:20:56.413Z,48.47
2019-05-06T21:23:34.559Z,48.64
2019-05-06T21:26:11.110Z,48.71
2019-05-06T21:28:47.887Z,49.07
2019-05-06T21:31:21.621Z,49.20
2019-05-06T21:33:55.329Z,49.61
2019-05-06T21:36:29.125Z,49.77
2019-05-06T21:39:02.828Z,49.99
2019-05-06T21:41:37.050Z,50.18
2019-05-06T21:44:13.001Z,50.36
2019-05-06T21:46:46.073Z,50.45
2019-05-06T21:49:20.093Z,50.83
2019-05-06T21:51:53.908Z,50.89
2019-05-06T21:54:27.735Z,51.12
2019-05-06T21:57:02.985Z,50.90
2019-05-06T21:59:36.871Z,51.14
2019-05-06T22:02:12.630Z,51.75
2019-05-06T22:04:46.463Z,51.80
2019-05-06T22:07:20.340Z,51.98
2019-05-06T22:09:54.156Z,52.30
2019-05-06T22:12:27.987Z,52.38
2019-05-06T22:15:04.859Z,52.53
2019-05-06T22:17:37.214Z,52.76
2019-05-06T22:20:11.077Z,53.08
2019-05-06T22:22:45.312Z,53.26
2019-05-06T22:25:18.850Z,53.48
2019-05-06T22:27:53.637Z,53.76
2019-05-06T22:30:27.499Z,53.84
2019-05-06T22:33:03.432Z,53.86
2019-05-06T22:35:36.678Z,53.88
2019-05-06T22:38:12.243Z,54.17
2019-05-06T22:40:45.853Z,54.10
2019-05-06T22:43:21.870Z,54.01
2019-05-06T22:45:56.357Z,54.14
2019-05-06T22:48:32.379Z,54.11
2019-05-06T22:51:06.296Z,54.34
2019-05-06T22:53:42.319Z,54.24
2019-05-06T22:56:16.138Z,54.24
2019-05-06T22:58:52.234Z,54.37
2019-05-06T23:01:46.432Z,54.36
2019-05-06T23:04:25.488Z,54.42
2019-05-06T23:07:04.441Z,54.44
2019-05-06T23:09:45.507Z,54.40
2019-05-06T23:12:23.115Z,54.14
2019-05-06T23:15:02.494Z,54.57
2019-05-06T23:17:41.952Z,54.83
2019-05-06T23:20:16.141Z,55.09
2019-05-06T23:22:51.059Z,55.31
2019-05-06T23:25:25.888Z,55.60
2019-05-06T23:27:59.664Z,55.84
2019-05-06T23:30:33.634Z,56.19
2019-05-06T23:33:07.497Z,56.57
2019-05-06T23:35:43.937Z,56.73
2019-05-06T23:39:16.595Z,56.81
2019-05-06T23:43:00.308Z,56.67
2019-05-06T23:46:24.163Z,56.85
2019-05-06T23:54:08.261Z,57.37
2019-05-06T23:56:44.465Z,57.76
2019-05-06T23:59:20.098Z,58.15
